createdAt,value
2023-09-08T00:01:20.799Z,14.41
2023-09-08T00:06:28.546Z,14.26
2023-09-08T00:11:36.380Z,14.34
2023-09-08T00:16:45.186Z,14.44
2023-09-08T00:21:52.935Z,14.39
2023-09-08T00:27:00.667Z,14.28
2023-09-08T00:32:09.266Z,14.24
2023-09-08T00:37:17.038Z,13.98
2023-09-08T00:42:24.773Z,13.91
2023-09-08T00:47:33.023Z,14.11
2023-09-08T00:52:41.245Z,14.07
2023-09-08T00:57:49.044Z,14.01
2023-09-08T01:02:56.971Z,14.12
2023-09-08T01:08:05.931Z,14.28
2023-09-08T01:13:13.747Z,14.28
2023-09-08T01:18:21.997Z,14.18
2023-09-08T01:23:44.409Z,14.15
2023-09-08T01:28:54.235Z,14.17
2023-09-08T01:34:05.795Z,14.08
2023-09-08T01:39:13.548Z,14.04
2023-09-08T01:44:21.637Z,13.98
2023-09-08T01:49:29.442Z,13.88
2023-09-08T01:54:37.196Z,13.73
2023-09-08T01:59:45.939Z,13.67
2023-09-08T02:04:54.094Z,13.49
2023-09-08T02:10:01.883Z,13.51
2023-09-08T02:15:13.013Z,13.51
2023-09-08T02:20:21.758Z,13.55
2023-09-08T02:25:29.467Z,13.58
2023-09-08T02:30:38.209Z,13.50
2023-09-08T02:35:46.060Z,13.37
2023-09-08T02:40:54.131Z,13.37
2023-09-08T02:46:02.042Z,13.22
2023-09-08T02:51:10.475Z,13.12
2023-09-08T02:56:18.206Z,13.11
2023-09-08T03:01:26.060Z,13.07
2023-09-08T03:06:33.770Z,12.94
2023-09-08T03:11:41.542Z,12.85
2023-09-08T03:16:49.325Z,12.91
2023-09-08T03:21:57.524Z,12.99
2023-09-08T03:27:05.727Z,12.89
2023-09-08T03:32:13.699Z,12.85
2023-09-08T03:37:21.582Z,12.83
2023-09-08T03:42:29.321Z,12.65
2023-09-08T03:47:37.173Z,12.44
2023-09-08T03:52:45.200Z,12.38
2023-09-08T03:57:52.897Z,12.43
2023-09-08T04:03:00.923Z,12.53
2023-09-08T04:08:09.406Z,12.70
2023-09-08T04:13:17.173Z,12.84
2023-09-08T04:18:24.982Z,12.95
2023-09-08T04:23:33.307Z,12.96
2023-09-08T04:28:41.336Z,12.99
2023-09-08T04:33:49.154Z,12.95
2023-09-08T04:38:57.165Z,12.85
2023-09-08T04:44:05.026Z,12.91
2023-09-08T04:49:13.122Z,13.21
2023-09-08T04:54:22.380Z,13.33
2023-09-08T04:59:30.135Z,13.44
2023-09-08T05:04:37.848Z,13.61
2023-09-08T05:09:45.964Z,13.88
2023-09-08T05:14:57.748Z,14.00
2023-09-08T05:20:05.922Z,14.14
2023-09-08T05:25:14.186Z,14.48
2023-09-08T05:30:21.973Z,14.68
2023-09-08T05:35:29.729Z,14.88
2023-09-08T05:40:37.967Z,15.25
2023-09-08T05:45:45.690Z,15.58
2023-09-08T05:50:53.500Z,15.81
2023-09-08T05:56:01.350Z,16.07
2023-09-08T06:01:10.165Z,16.21
2023-09-08T06:06:17.865Z,16.39
2023-09-08T06:11:25.579Z,16.68
2023-09-08T06:16:33.326Z,17.03
2023-09-08T06:21:41.128Z,17.26
2023-09-08T06:26:51.140Z,17.42
2023-09-08T06:31:58.979Z,17.58
2023-09-08T06:37:07.117Z,17.95
2023-09-08T06:42:14.807Z,18.29
2023-09-08T06:47:22.617Z,18.47
2023-09-08T06:52:30.377Z,18.79
2023-09-08T06:57:38.105Z,19.04
2023-09-08T07:02:46.069Z,19.35
2023-09-08T07:07:53.906Z,19.63
2023-09-08T07:13:01.983Z,20.06
2023-09-08T07:18:10.248Z,20.46
2023-09-08T07:23:18.288Z,20.86
2023-09-08T07:28:26.123Z,21.41
2023-09-08T07:33:34.017Z,21.99
2023-09-08T07:38:41.827Z,22.62
2023-09-08T07:43:49.749Z,23.06
2023-09-08T07:48:57.844Z,23.54
2023-09-08T07:54:05.779Z,23.56
2023-09-08T07:59:13.684Z,23.78
2023-09-08T08:04:21.595Z,24.19
2023-09-08T08:09:29.394Z,24.43
2023-09-08T08:14:37.653Z,24.66
2023-09-08T08:19:45.347Z,24.99
2023-09-08T08:24:53.236Z,24.95
2023-09-08T08:30:02.466Z,25.17
2023-09-08T08:35:11.244Z,25.29
2023-09-08T08:40:19.139Z,25.00
2023-09-08T08:45:28.586Z,25.23
2023-09-08T08:50:38.158Z,25.55
2023-09-08T08:55:46.970Z,25.75
2023-09-08T09:00:56.435Z,25.78
2023-09-08T09:06:05.143Z,25.52
2023-09-08T09:11:13.320Z,25.62
2023-09-08T09:16:21.474Z,25.59
2023-09-08T09:21:47.435Z,25.34
2023-09-08T09:26:58.039Z,25.12
2023-09-08T09:32:09.311Z,24.87
2023-09-08T09:37:17.102Z,24.79
2023-09-08T09:42:25.278Z,24.84
2023-09-08T09:47:33.288Z,25.16
2023-09-08T09:52:42.468Z,25.57
2023-09-08T09:57:52.586Z,26.02
2023-09-08T10:03:01.200Z,26.39
2023-09-08T10:08:09.788Z,27.19
2023-09-08T10:13:24.052Z,27.43
2023-09-08T10:18:36.048Z,27.78
2023-09-08T10:23:45.956Z,28.45
2023-09-08T10:28:57.034Z,28.67
2023-09-08T10:34:05.873Z,28.77
2023-09-08T10:39:36.983Z,28.90
2023-09-08T10:44:45.577Z,29.49
2023-09-08T10:49:58.822Z,29.50
2023-09-08T10:55:09.182Z,29.37
2023-09-08T11:00:21.817Z,29.66
2023-09-08T11:05:29.702Z,29.83
2023-09-08T11:10:38.887Z,29.63
2023-09-08T11:15:46.622Z,29.51
2023-09-08T11:20:56.945Z,29.53
2023-09-08T11:26:05.568Z,29.50
2023-09-08T11:31:14.991Z,29.12
2023-09-08T11:36:22.840Z,29.34
2023-09-08T11:41:31.753Z,29.31
2023-09-08T11:46:39.960Z,29.73
2023-09-08T11:51:48.200Z,30.24
2023-09-08T11:56:56.333Z,30.66
2023-09-08T12:02:04.458Z,30.40
2023-09-08T12:07:17.464Z,30.31
2023-09-08T12:12:25.287Z,30.46
2023-09-08T12:17:33.109Z,30.60
2023-09-08T12:22:49.220Z,30.51
2023-09-08T12:27:57.343Z,30.40
2023-09-08T12:33:06.512Z,30.43
2023-09-08T12:38:15.328Z,30.43
2023-09-08T12:43:27.293Z,30.54
2023-09-08T12:48:36.570Z,30.73
2023-09-08T12:53:44.395Z,30.58
2023-09-08T12:58:52.147Z,30.15
2023-09-08T13:04:00.520Z,29.94
2023-09-08T13:09:09.612Z,29.87
2023-09-08T13:14:17.335Z,30.01
2023-09-08T13:19:25.140Z,30.17
2023-09-08T13:24:33.162Z,30.12
2023-09-08T13:29:41.495Z,30.33
2023-09-08T13:34:49.555Z,29.99
2023-09-08T13:39:57.525Z,29.99
2023-09-08T13:45:06.263Z,29.81
2023-09-08T13:50:14.684Z,29.80
2023-09-08T13:55:36.725Z,29.46
2023-09-08T14:00:47.165Z,29.43
2023-09-08T14:06:02.750Z,29.55
2023-09-08T14:11:15.799Z,29.48
2023-09-08T14:16:32.901Z,29.41
2023-09-08T14:21:41.211Z,29.18
2023-09-08T14:26:49.046Z,29.31
2023-09-08T14:31:56.858Z,29.20
2023-09-08T14:37:05.743Z,29.18
2023-09-08T14:42:15.427Z,29.12
2023-09-08T14:47:23.240Z,29.02
2023-09-08T14:52:30.965Z,28.90
2023-09-08T14:57:38.938Z,28.83
2023-09-08T15:02:47.474Z,28.66
2023-09-08T15:07:55.290Z,28.52
2023-09-08T15:13:03.277Z,28.22
2023-09-08T15:18:11.154Z,27.97
2023-09-08T15:23:19.005Z,27.75
2023-09-08T15:28:27.310Z,27.50
2023-09-08T15:33:35.397Z,27.31
2023-09-08T15:38:43.540Z,27.10
2023-09-08T15:43:53.334Z,26.93
2023-09-08T15:49:01.182Z,26.76
2023-09-08T15:54:09.470Z,26.65
2023-09-08T15:59:18.201Z,26.49
2023-09-08T16:04:26.196Z,26.35
2023-09-08T16:09:34.013Z,26.19
2023-09-08T16:14:41.779Z,25.90
2023-09-08T16:19:49.659Z,25.55
2023-09-08T16:24:57.388Z,24.98
2023-09-08T16:30:05.837Z,24.28
2023-09-08T16:35:13.710Z,23.77
2023-09-08T16:40:23.534Z,23.55
2023-09-08T16:45:31.425Z,23.27
2023-09-08T16:50:39.219Z,22.98
2023-09-08T16:55:47.054Z,22.51
2023-09-08T17:00:54.819Z,22.27
2023-09-08T17:06:02.725Z,22.09
2023-09-08T17:11:11.576Z,21.84
2023-09-08T17:16:19.352Z,21.51
2023-09-08T17:21:28.879Z,21.27
2023-09-08T17:26:36.635Z,21.03
2023-09-08T17:31:44.709Z,20.95
2023-09-08T17:36:56.979Z,20.87
2023-09-08T17:42:04.997Z,20.66
2023-09-08T17:47:12.751Z,20.47
2023-09-08T17:52:20.645Z,20.32
2023-09-08T17:57:28.444Z,20.11
2023-09-08T18:02:36.786Z,19.97
2023-09-08T18:07:46.121Z,19.94
2023-09-08T18:12:53.997Z,19.92
2023-09-08T18:18:02.052Z,19.74
2023-09-08T18:23:10.163Z,19.51
2023-09-08T18:28:19.034Z,19.29
2023-09-08T18:33:27.161Z,19.10
2023-09-08T18:38:35.670Z,19.17
2023-09-08T18:43:43.411Z,19.11
2023-09-08T18:48:51.291Z,19.02
2023-09-08T18:53:59.035Z,18.79
2023-09-08T18:59:07.130Z,18.69
2023-09-08T19:04:15.235Z,18.71
2023-09-08T19:09:23.343Z,18.63
2023-09-08T19:14:31.388Z,18.37
2023-09-08T19:19:39.094Z,18.24
2023-09-08T19:24:48.934Z,18.13
2023-09-08T19:29:56.920Z,18.12
2023-09-08T19:35:04.872Z,17.96
2023-09-08T19:40:13.247Z,17.74
2023-09-08T19:45:21.826Z,17.65
2023-09-08T19:50:29.778Z,17.60
2023-09-08T19:55:38.478Z,17.46
2023-09-08T20:00:46.168Z,17.33
2023-09-08T20:05:55.030Z,17.22
2023-09-08T20:11:04.108Z,17.23
2023-09-08T20:16:12.162Z,17.32
2023-09-08T20:21:19.988Z,17.25
2023-09-08T20:26:27.808Z,17.06
2023-09-08T20:31:35.518Z,16.94
2023-09-08T20:36:43.239Z,16.82
2023-09-08T20:41:51.061Z,16.64
2023-09-08T20:46:59.191Z,16.57
2023-09-08T20:52:12.839Z,16.49
2023-09-08T20:57:20.656Z,16.48
2023-09-08T21:02:28.453Z,16.43
2023-09-08T21:07:36.162Z,16.30
2023-09-08T21:12:43.899Z,16.16
2023-09-08T21:17:51.741Z,16.06
2023-09-08T21:23:02.908Z,16.08
2023-09-08T21:28:10.801Z,16.01
2023-09-08T21:33:21.830Z,15.90
2023-09-08T21:38:29.737Z,15.81
2023-09-08T21:43:38.021Z,15.74
2023-09-08T21:48:46.105Z,15.71
2023-09-08T21:53:53.983Z,15.60
2023-09-08T21:59:01.743Z,15.53
2023-09-08T22:04:10.248Z,15.50
2023-09-08T22:09:19.966Z,15.40
2023-09-08T22:14:28.701Z,15.43
2023-09-08T22:19:36.449Z,15.41
2023-09-08T22:24:44.176Z,15.37
2023-09-08T22:29:51.929Z,15.25
2023-09-08T22:34:59.797Z,15.14
2023-09-08T22:40:10.406Z,15.06
2023-09-08T22:45:18.535Z,15.12
2023-09-08T22:50:27.419Z,15.17
2023-09-08T22:55:35.255Z,14.92
2023-09-08T23:00:43.139Z,14.85
2023-09-08T23:05:51.400Z,14.84
2023-09-08T23:10:59.108Z,14.71
2023-09-08T23:16:07.201Z,14.65
2023-09-08T23:21:14.973Z,14.68
2023-09-08T23:26:22.907Z,14.64
2023-09-08T23:31:30.657Z,14.52
2023-09-08T23:36:38.412Z,14.50
2023-09-08T23:41:47.324Z,14.36
2023-09-08T23:46:55.219Z,14.37
2023-09-08T23:52:03.125Z,14.39
2023-09-08T23:57:10.904Z,14.28
